This is the latest recevied weather packets stored in our database for station/object K4NSC-13. If no packets are shown the sender has not sent any weather packets the latest 10 day(s).
| Time | Temp. | Humidity | Pressure | Rain* | Wind** | Luminosity | Snow |
|---|---|---|---|---|---|---|---|
| 1777906522 | 21.11° C | 52% | 1018.1 hPa | 0 mm | - | 727 W/m² | - |
| 1777901132 | 16.67° C | 75% | 1018.5 hPa | 0 mm | - | 284 W/m² | - |
| 1777896320 | 11.67° C | 93% | 1018.5 hPa | 0 mm | - | 188 W/m² | - |
| 1777893319 | 8.89° C | 98% | 1018.6 hPa | 0 mm | - | 32 W/m² | - |
| 1777892719 | 8.33° C | 98% | 1018.5 hPa | 0 mm | - | 24 W/m² | - |
| 1777890318 | 8.89° C | 98% | 1018.1 hPa | 0 mm | - | 1 W/m² | - |
| 1777887319 | 9.44° C | 96% | 1018.2 hPa | 0 mm | - | 0 W/m² | - |
| 1777883120 | 10° C | 93% | 1018.1 hPa | 0 mm | - | 0 W/m² | - |
| 1777880125 | 12.78° C | 86% | 1017.6 hPa | 0 mm | - | 0 W/m² | - |
| 1777872923 | 12.78° C | 84% | 1018.5 hPa | 0 mm | - | 0 W/m² | - |
| 1777869932 | 9.44° C | 93% | 1018.4 hPa | 0 mm | - | 0 W/m² | - |
| 1777869344 | 9.44° C | 93% | 1018.3 hPa | 0 mm | - | 0 W/m² | - |
| 1777862166 | 11.67° C | 81% | 1018.1 hPa | 0 mm | - | 0 W/m² | - |
| 1777856727 | 14.44° C | 71% | 1017.1 hPa | 0 mm | - | 0 W/m² | - |
| 1777856127 | 15° C | 71% | 1016.9 hPa | 0 mm | - | 0 W/m² | - |
| 1777854928 | 15.56° C | 68% | 1016.7 hPa | 0 mm | - | 0 W/m² | - |
| 1777850129 | 22.78° C | 46% | 1016.2 hPa | 0 mm | - | 89 W/m² | - |
| 1777845917 | 22.22° C | 45% | 1016.3 hPa | 0 mm | - | 316 W/m² | - |
| 1777845337 | 22.22° C | 45% | 1016.3 hPa | 0 mm | - | 354 W/m² | - |
| 1777840521 | 22.22° C | 44% | 1016.5 hPa | 0 mm | - | 636 W/m² | - |
| 1777835122 | 21.11° C | 44% | 1018.2 hPa | 0 mm | - | 890 W/m² | - |
| 1777833323 | 20.56° C | 47% | 1018.8 hPa | 0 mm | - | 946 W/m² | - |
| 1777832163 | 20° C | 47% | 1019.1 hPa | 0 mm | - | 977 W/m² | - |
| 1777828523 | 18.89° C | 50% | 1019.7 hPa | 0 mm | - | 1014 W/m² | - |
| 1777826721 | 17.78° C | 53% | 1020.2 hPa | 0 mm | - | 991 W/m² | - |
* Rain latest hour (hover to see other rain measurements)
** Current wind speed in m/s (hover to see current wind gust speed)